Forside
METAR-TAF:

METAR-TAF

Lufthavne :

Taylor County Airport

Medford, Wisconsin, USA

Breddekreds: 45-06-04N, længdekreds: 090-18-12W, højde: 448 m

Aktuelle vejr

Denne rapport blev lavet for 28 minutter siden, kl. 02:55 UTC
Vind 4 kt fra vestnordvest
Temperatur -13°C
Fugtighed 66%
Tryk 1016 hPa
Sigt: 16.1 km
skyfri

METAR: KMDZ 280255Z AUTO 29004KT 10SM CLR M13/M18 A3001 RMK AO2 T11301185

Tid: 21:23 (03:23 UTC)


TAF: fraværende

Vejrobservationer og prognoser fra mere end 4000 lufthavne (METAR og TAF).

De gule og røde prikker repræsenterer de meteorologiske stationer.

Flyt musen over at se navnet på stationen.

Så klik over at se vejr observationer og prognoser.

At skifte det kort: Klik på de grønne knapper med et sort kors for at zoome ind; på den grønne knap med en bindestreg for at zoome ud; eller på de grønne pile for tilstødende kort.


METAR-TAF: